createdAt,value
2023-04-26T00:00:00.338Z,6.10
2023-04-26T00:01:01.032Z,6.10
2023-04-26T00:02:00.354Z,6.10
2023-04-26T00:03:00.625Z,6.10
2023-04-26T00:04:00.586Z,6.10
2023-04-26T00:05:00.635Z,6.10
2023-04-26T00:06:00.365Z,6.10
2023-04-26T00:07:00.336Z,6.10
2023-04-26T00:08:00.384Z,6.10
2023-04-26T00:09:00.328Z,6.10
2023-04-26T00:10:00.578Z,6.10
2023-04-26T00:11:00.417Z,6.10
2023-04-26T00:12:00.329Z,6.10
2023-04-26T00:13:00.579Z,6.10
2023-04-26T00:14:00.444Z,6.10
2023-04-26T00:15:00.374Z,6.10
2023-04-26T00:16:00.419Z,6.10
2023-04-26T00:17:00.379Z,6.10
2023-04-26T00:18:00.398Z,6.10
2023-04-26T00:19:00.399Z,6.10
2023-04-26T00:20:00.320Z,6.10
2023-04-26T00:21:00.341Z,6.10
2023-04-26T00:22:00.323Z,4.20
2023-04-26T00:23:00.350Z,4.20
2023-04-26T00:24:00.552Z,4.20
2023-04-26T00:25:00.361Z,4.20
2023-04-26T00:26:00.323Z,4.20
2023-04-26T00:27:00.339Z,4.20
2023-04-26T00:28:00.551Z,4.20
2023-04-26T00:29:00.791Z,4.20
2023-04-26T00:30:00.320Z,4.20
2023-04-26T00:31:00.321Z,4.20
2023-04-26T00:32:00.395Z,4.20
2023-04-26T00:33:00.383Z,4.20
2023-04-26T00:34:00.341Z,4.20
2023-04-26T00:35:01.938Z,4.20
2023-04-26T00:36:00.342Z,4.20
2023-04-26T00:37:00.412Z,4.20
2023-04-26T00:38:00.324Z,4.20
2023-04-26T00:39:00.337Z,4.20
2023-04-26T00:40:00.552Z,4.20
2023-04-26T00:41:00.373Z,4.20
2023-04-26T00:42:00.384Z,4.20
2023-04-26T00:43:01.665Z,4.20
2023-04-26T00:44:00.384Z,4.20
2023-04-26T00:45:00.433Z,4.20
2023-04-26T00:46:00.659Z,4.20
2023-04-26T00:47:00.370Z,4.20
2023-04-26T00:48:01.704Z,4.20
2023-04-26T00:49:00.650Z,4.20
2023-04-26T00:50:00.630Z,4.20
2023-04-26T00:51:00.412Z,4.20
2023-04-26T00:52:00.785Z,6.30
2023-04-26T00:53:01.528Z,6.30
2023-04-26T00:54:00.641Z,6.30
2023-04-26T00:55:00.712Z,6.30
2023-04-26T00:56:00.723Z,6.30
2023-04-26T00:57:01.183Z,6.30
2023-04-26T00:58:00.348Z,6.30
2023-04-26T00:59:01.462Z,6.30
2023-04-26T01:00:00.574Z,6.30
2023-04-26T01:01:00.435Z,6.30
2023-04-26T01:02:01.498Z,6.30
2023-04-26T01:03:00.766Z,6.30
2023-04-26T01:04:00.938Z,6.30
2023-04-26T01:05:00.553Z,6.30
2023-04-26T01:06:00.595Z,6.30
2023-04-26T01:07:00.858Z,6.30
2023-04-26T01:08:00.555Z,6.30
2023-04-26T01:09:02.903Z,6.30
2023-04-26T01:10:00.386Z,6.30
2023-04-26T01:11:00.689Z,6.30
2023-04-26T01:12:00.675Z,6.30
2023-04-26T01:13:00.660Z,6.30
2023-04-26T01:14:00.977Z,6.30
2023-04-26T01:15:00.609Z,6.30
2023-04-26T01:16:01.468Z,6.30
2023-04-26T01:17:00.927Z,6.30
2023-04-26T01:18:00.451Z,6.30
2023-04-26T01:19:08.445Z,6.30
2023-04-26T01:20:00.417Z,6.30
2023-04-26T01:21:02.087Z,6.30
2023-04-26T01:22:00.363Z,6.00
2023-04-26T01:23:00.388Z,6.00
2023-04-26T01:24:00.664Z,6.00
2023-04-26T01:25:00.773Z,6.00
2023-04-26T01:26:00.350Z,6.00
2023-04-26T01:27:00.691Z,6.00
2023-04-26T01:28:00.443Z,6.00
2023-04-26T01:29:00.356Z,6.00
2023-04-26T01:30:00.602Z,6.00
2023-04-26T01:31:00.400Z,6.00
2023-04-26T01:32:00.550Z,6.00
2023-04-26T01:33:00.660Z,6.00
2023-04-26T01:34:00.372Z,6.00
2023-04-26T01:35:00.369Z,6.00
2023-04-26T01:36:00.560Z,6.00
2023-04-26T01:37:00.593Z,6.00
2023-04-26T01:38:00.370Z,6.00
2023-04-26T01:39:00.542Z,6.00
2023-04-26T01:40:00.553Z,6.00
2023-04-26T01:41:00.361Z,6.00
2023-04-26T01:42:00.381Z,6.00
2023-04-26T01:43:00.294Z,6.00
2023-04-26T01:44:00.581Z,6.00
2023-04-26T01:45:00.574Z,6.00
2023-04-26T01:46:00.328Z,6.00
2023-04-26T01:47:00.308Z,6.00
2023-04-26T01:48:00.449Z,6.00
2023-04-26T01:49:00.522Z,6.00
2023-04-26T01:50:00.687Z,6.00
2023-04-26T01:51:00.325Z,6.00
2023-04-26T01:52:00.313Z,6.70
2023-04-26T01:53:00.356Z,6.70
2023-04-26T01:54:00.311Z,6.70
2023-04-26T01:55:00.336Z,6.70
2023-04-26T01:56:00.685Z,6.70
2023-04-26T01:57:00.414Z,6.70
2023-04-26T01:58:00.308Z,6.70
2023-04-26T01:59:00.329Z,6.70
2023-04-26T02:00:00.619Z,6.70
2023-04-26T02:01:04.240Z,6.70
2023-04-26T02:02:00.531Z,6.70
2023-04-26T02:03:00.393Z,6.70
2023-04-26T02:04:00.338Z,6.70
2023-04-26T02:05:00.443Z,6.70
2023-04-26T02:06:00.652Z,6.70
2023-04-26T02:07:00.343Z,6.70
2023-04-26T02:08:00.343Z,6.70
2023-04-26T02:09:00.319Z,6.70
2023-04-26T02:10:00.303Z,6.70
2023-04-26T02:11:00.314Z,6.70
2023-04-26T02:12:00.353Z,6.70
2023-04-26T02:13:00.328Z,6.70
2023-04-26T02:14:00.532Z,6.70
2023-04-26T02:15:00.314Z,6.70
2023-04-26T02:16:00.356Z,6.70
2023-04-26T02:17:00.346Z,6.70
2023-04-26T02:18:00.353Z,6.70
2023-04-26T02:19:00.324Z,6.70
2023-04-26T02:20:00.336Z,6.70
2023-04-26T02:21:00.320Z,6.70
2023-04-26T02:22:00.427Z,6.20
2023-04-26T02:23:00.364Z,6.20
2023-04-26T02:24:00.299Z,6.20
2023-04-26T02:25:00.368Z,6.20
2023-04-26T02:26:00.359Z,6.20
2023-04-26T02:27:00.298Z,6.20
2023-04-26T02:28:00.361Z,6.20
2023-04-26T02:29:00.307Z,6.20
2023-04-26T02:30:00.320Z,6.20
2023-04-26T02:31:01.197Z,6.20
2023-04-26T02:32:00.315Z,6.20
2023-04-26T02:33:00.380Z,6.20
2023-04-26T02:34:00.358Z,6.20
2023-04-26T02:35:00.320Z,6.20
2023-04-26T02:36:02.241Z,6.20
2023-04-26T02:37:00.592Z,6.20
2023-04-26T02:38:00.322Z,6.20
2023-04-26T02:39:00.305Z,6.20
2023-04-26T02:40:00.350Z,6.20
2023-04-26T02:41:00.854Z,6.20
2023-04-26T02:42:00.310Z,6.20
2023-04-26T02:43:00.397Z,6.20
2023-04-26T02:44:00.304Z,6.20
2023-04-26T02:45:00.331Z,6.20
2023-04-26T02:46:00.307Z,6.20
2023-04-26T02:47:00.402Z,6.20
2023-04-26T02:48:00.349Z,6.20
2023-04-26T02:49:00.323Z,6.20
2023-04-26T02:50:00.324Z,6.20
2023-04-26T02:51:00.303Z,6.20
2023-04-26T02:52:00.915Z,5.80
2023-04-26T02:53:00.341Z,5.80
2023-04-26T02:54:00.346Z,5.80
2023-04-26T02:55:00.618Z,5.80
2023-04-26T02:56:00.315Z,5.80
2023-04-26T02:57:00.343Z,5.80
2023-04-26T02:58:00.330Z,5.80
2023-04-26T02:59:00.305Z,5.80
2023-04-26T03:00:00.304Z,5.80
2023-04-26T03:01:01.676Z,5.80
2023-04-26T03:02:00.442Z,5.80
2023-04-26T03:03:00.523Z,5.80
2023-04-26T03:04:00.516Z,5.80
2023-04-26T03:05:00.302Z,5.80
2023-04-26T03:06:00.308Z,5.80
2023-04-26T03:07:01.876Z,5.80
2023-04-26T03:08:00.334Z,5.80
2023-04-26T03:09:00.363Z,5.80
2023-04-26T03:10:00.336Z,5.80
2023-04-26T03:11:00.298Z,5.80
2023-04-26T03:12:00.363Z,5.80
2023-04-26T03:13:00.370Z,5.80
2023-04-26T03:14:00.328Z,5.80
2023-04-26T03:15:00.352Z,5.80
2023-04-26T03:16:00.321Z,5.80
2023-04-26T03:17:00.634Z,5.80
2023-04-26T03:18:00.685Z,5.80
2023-04-26T03:19:00.297Z,5.80
2023-04-26T03:20:02.565Z,5.80
2023-04-26T03:21:00.323Z,5.80
2023-04-26T03:22:00.363Z,5.60
2023-04-26T03:23:00.323Z,5.60
2023-04-26T03:24:00.360Z,5.60
2023-04-26T03:25:00.385Z,5.60
2023-04-26T03:26:00.318Z,5.60
2023-04-26T03:27:00.365Z,5.60
2023-04-26T03:28:00.340Z,5.60
2023-04-26T03:29:00.981Z,5.60
2023-04-26T03:30:00.343Z,5.60
2023-04-26T03:31:00.322Z,5.60
2023-04-26T03:32:00.354Z,5.60
2023-04-26T03:33:00.386Z,5.60
2023-04-26T03:34:00.345Z,5.60
2023-04-26T03:35:00.341Z,5.60
2023-04-26T03:36:00.308Z,5.60
2023-04-26T03:37:01.089Z,5.60
2023-04-26T03:38:00.322Z,5.60
2023-04-26T03:39:00.370Z,5.60
2023-04-26T03:40:00.303Z,5.60
2023-04-26T03:41:00.336Z,5.60
2023-04-26T03:42:00.307Z,5.60
2023-04-26T03:43:00.313Z,5.60
2023-04-26T03:44:00.308Z,5.60
2023-04-26T03:45:00.310Z,5.60
2023-04-26T03:46:00.329Z,5.60
2023-04-26T03:47:00.325Z,5.60
2023-04-26T03:48:00.439Z,5.60
2023-04-26T03:49:00.347Z,5.60
2023-04-26T03:50:00.353Z,5.60
2023-04-26T03:51:00.821Z,5.60
2023-04-26T03:52:00.310Z,4.60
2023-04-26T03:53:00.326Z,4.60
2023-04-26T03:54:00.358Z,4.60
2023-04-26T03:55:00.358Z,4.60
2023-04-26T03:56:00.299Z,4.60
2023-04-26T03:57:00.309Z,4.60
2023-04-26T03:58:00.316Z,4.60
2023-04-26T03:59:00.341Z,4.60
2023-04-26T04:00:00.358Z,4.60
2023-04-26T04:01:00.317Z,4.60
2023-04-26T04:02:00.375Z,4.60
2023-04-26T04:03:00.468Z,4.60
2023-04-26T04:04:00.784Z,4.60
2023-04-26T04:05:00.725Z,4.60
2023-04-26T04:06:00.339Z,4.60
2023-04-26T04:07:00.335Z,4.60
2023-04-26T04:08:00.566Z,4.60
2023-04-26T04:09:00.308Z,4.60
2023-04-26T04:10:00.382Z,4.60
2023-04-26T04:11:00.300Z,4.60
2023-04-26T04:12:00.343Z,4.60
2023-04-26T04:13:00.340Z,4.60
2023-04-26T04:14:00.310Z,4.60
2023-04-26T04:15:00.353Z,4.60
2023-04-26T04:16:00.347Z,4.60
2023-04-26T04:17:00.314Z,4.60
2023-04-26T04:18:00.387Z,4.60
2023-04-26T04:19:00.357Z,4.60
2023-04-26T04:20:00.980Z,4.60
2023-04-26T04:21:00.349Z,4.60
2023-04-26T04:22:00.367Z,4.80
2023-04-26T04:23:00.406Z,4.80
2023-04-26T04:24:00.322Z,4.80
2023-04-26T04:25:00.298Z,4.80
2023-04-26T04:26:00.344Z,4.80
2023-04-26T04:27:00.421Z,4.80
2023-04-26T04:28:01.062Z,4.80
2023-04-26T04:29:00.306Z,4.80
2023-04-26T04:30:00.435Z,4.80
2023-04-26T04:31:00.339Z,4.80
2023-04-26T04:32:00.291Z,4.80
2023-04-26T04:33:00.489Z,4.80
2023-04-26T04:34:00.343Z,4.80
2023-04-26T04:35:00.591Z,4.80
2023-04-26T04:36:00.304Z,4.80
2023-04-26T04:37:00.362Z,4.80
2023-04-26T04:38:00.308Z,4.80
2023-04-26T04:39:00.320Z,4.80
2023-04-26T04:40:00.601Z,4.80
2023-04-26T04:41:00.383Z,4.80
2023-04-26T04:42:00.346Z,4.80
2023-04-26T04:43:00.334Z,4.80
2023-04-26T04:44:00.347Z,4.80
2023-04-26T04:45:00.304Z,4.80
2023-04-26T04:46:00.375Z,4.80
2023-04-26T04:47:00.462Z,4.80
2023-04-26T04:48:00.348Z,4.80
2023-04-26T04:49:00.301Z,4.80
2023-04-26T04:50:00.324Z,4.80
2023-04-26T04:51:00.327Z,4.80
2023-04-26T04:52:00.348Z,4.90
2023-04-26T04:53:00.419Z,4.90
2023-04-26T04:54:08.392Z,4.90
2023-04-26T04:55:00.343Z,4.90
2023-04-26T04:56:00.334Z,4.90
2023-04-26T04:57:00.308Z,4.90
2023-04-26T04:58:00.319Z,4.90
2023-04-26T04:59:00.302Z,4.90
2023-04-26T05:00:00.433Z,4.90
2023-04-26T05:01:00.300Z,4.90
2023-04-26T05:02:00.348Z,4.90
2023-04-26T05:03:00.569Z,4.90
2023-04-26T05:04:00.447Z,4.90
2023-04-26T05:05:00.918Z,4.90
2023-04-26T05:06:00.316Z,4.90
2023-04-26T05:07:00.344Z,4.90
2023-04-26T05:08:00.388Z,4.90
2023-04-26T05:09:00.298Z,4.90
2023-04-26T05:10:00.303Z,4.90
2023-04-26T05:11:00.353Z,4.90
2023-04-26T05:12:00.363Z,4.90
2023-04-26T05:13:00.343Z,4.90
2023-04-26T05:14:00.744Z,4.90
2023-04-26T05:15:00.346Z,4.90
2023-04-26T05:16:00.401Z,4.90
2023-04-26T05:17:00.308Z,4.90
2023-04-26T05:18:00.342Z,4.90
2023-04-26T05:19:00.326Z,4.90
2023-04-26T05:20:00.328Z,4.90
2023-04-26T05:21:00.307Z,4.90
2023-04-26T05:22:00.397Z,4.90
2023-04-26T05:23:00.340Z,4.90
2023-04-26T05:24:00.339Z,4.90
2023-04-26T05:25:00.334Z,4.90
2023-04-26T05:26:01.223Z,4.90
2023-04-26T05:27:00.317Z,4.90
2023-04-26T05:28:00.380Z,4.90
2023-04-26T05:29:00.363Z,4.90
2023-04-26T05:30:00.316Z,4.90
2023-04-26T05:31:00.311Z,4.90
2023-04-26T05:32:00.345Z,4.90
2023-04-26T05:33:00.376Z,4.90
2023-04-26T05:34:00.386Z,4.90
2023-04-26T05:35:00.302Z,4.90
2023-04-26T05:36:00.418Z,4.90
2023-04-26T05:37:00.304Z,4.90
2023-04-26T05:38:00.316Z,4.90
2023-04-26T05:39:00.341Z,4.90
2023-04-26T05:40:00.393Z,4.90
2023-04-26T05:41:00.564Z,4.90
2023-04-26T05:42:00.295Z,4.90
2023-04-26T05:43:00.343Z,4.90
2023-04-26T05:44:00.430Z,4.90
2023-04-26T05:45:00.352Z,4.90
2023-04-26T05:46:00.369Z,4.90
2023-04-26T05:47:00.301Z,4.90
2023-04-26T05:48:00.389Z,4.90
2023-04-26T05:49:00.406Z,4.90
2023-04-26T05:50:00.329Z,4.90
2023-04-26T05:51:00.317Z,4.90
2023-04-26T05:52:00.383Z,4.10
2023-04-26T05:53:00.315Z,4.10
2023-04-26T05:54:00.310Z,4.10
2023-04-26T05:55:00.413Z,4.10
2023-04-26T05:56:00.358Z,4.10
2023-04-26T05:57:00.354Z,4.10
2023-04-26T05:58:00.312Z,4.10
2023-04-26T05:59:00.316Z,4.10
2023-04-26T06:00:00.541Z,4.10
2023-04-26T06:01:00.305Z,4.10
2023-04-26T06:02:00.392Z,4.10
2023-04-26T06:03:00.596Z,4.10
2023-04-26T06:04:01.281Z,4.10
2023-04-26T06:05:00.463Z,4.10
2023-04-26T06:06:00.440Z,4.10
2023-04-26T06:07:00.320Z,4.10
2023-04-26T06:08:00.308Z,4.10
2023-04-26T06:09:00.342Z,4.10
2023-04-26T06:10:00.540Z,4.10
2023-04-26T06:11:00.357Z,4.10
2023-04-26T06:12:00.329Z,4.10
2023-04-26T06:13:00.315Z,4.10
2023-04-26T06:14:00.402Z,4.10
2023-04-26T06:15:00.304Z,4.10
2023-04-26T06:16:00.329Z,4.10
2023-04-26T06:17:00.368Z,4.10
2023-04-26T06:18:00.370Z,4.10
2023-04-26T06:19:00.345Z,4.10
2023-04-26T06:20:00.352Z,4.10
2023-04-26T06:21:00.341Z,4.10
2023-04-26T06:22:00.356Z,4.10
2023-04-26T06:23:00.357Z,4.10
2023-04-26T06:24:00.316Z,4.10
2023-04-26T06:25:00.292Z,4.10
2023-04-26T06:26:00.305Z,4.10
2023-04-26T06:27:00.392Z,4.10
2023-04-26T06:28:00.347Z,4.10
2023-04-26T06:29:00.298Z,4.10
2023-04-26T06:30:00.367Z,4.10
2023-04-26T06:31:00.383Z,4.10
2023-04-26T06:32:00.405Z,4.10
2023-04-26T06:33:00.851Z,4.10
2023-04-26T06:34:00.319Z,4.10
2023-04-26T06:35:00.401Z,4.10
2023-04-26T06:36:00.322Z,4.10
2023-04-26T06:37:00.305Z,4.10
2023-04-26T06:38:00.328Z,4.10
2023-04-26T06:39:00.445Z,4.10
2023-04-26T06:40:00.309Z,4.10
2023-04-26T06:41:00.320Z,4.10
2023-04-26T06:42:00.316Z,4.10
2023-04-26T06:43:00.329Z,4.10
2023-04-26T06:44:00.333Z,4.10
2023-04-26T06:45:00.362Z,4.10
2023-04-26T06:46:00.605Z,4.10
2023-04-26T06:47:00.347Z,4.10
2023-04-26T06:48:00.416Z,4.10
2023-04-26T06:49:00.564Z,4.10
2023-04-26T06:50:00.540Z,4.10
2023-04-26T06:51:03.906Z,4.10
2023-04-26T06:52:00.437Z,5.20
2023-04-26T06:53:00.314Z,5.20
2023-04-26T06:54:00.311Z,5.20
2023-04-26T06:55:00.828Z,5.20
2023-04-26T06:56:00.422Z,5.20
2023-04-26T06:57:01.496Z,5.20
2023-04-26T06:58:00.316Z,5.20
2023-04-26T06:59:01.296Z,5.20
2023-04-26T07:00:00.317Z,5.20
2023-04-26T07:01:00.689Z,5.20
2023-04-26T07:02:00.413Z,5.20
2023-04-26T07:03:00.426Z,5.20
2023-04-26T07:04:01.418Z,5.20
2023-04-26T07:05:00.606Z,5.20
2023-04-26T07:06:00.397Z,5.20
2023-04-26T07:07:00.839Z,5.20
2023-04-26T07:08:00.333Z,5.20
2023-04-26T07:09:01.358Z,5.20
2023-04-26T07:10:00.326Z,5.20
2023-04-26T07:11:00.329Z,5.20
2023-04-26T07:12:00.324Z,5.20
2023-04-26T07:13:00.339Z,5.20
2023-04-26T07:14:00.316Z,5.20
2023-04-26T07:15:00.336Z,5.20
2023-04-26T07:16:00.346Z,5.20
2023-04-26T07:17:00.381Z,5.20
2023-04-26T07:18:00.444Z,5.20
2023-04-26T07:19:00.307Z,5.20
2023-04-26T07:20:00.413Z,5.20
2023-04-26T07:21:00.334Z,5.20
2023-04-26T07:22:00.315Z,4.30
2023-04-26T07:23:00.309Z,4.30
2023-04-26T07:24:00.325Z,4.30
2023-04-26T07:25:00.320Z,4.30
2023-04-26T07:26:00.345Z,4.30
2023-04-26T07:27:00.399Z,4.30
2023-04-26T07:28:00.318Z,4.30
2023-04-26T07:29:00.320Z,4.30
2023-04-26T07:30:00.319Z,4.30
2023-04-26T07:31:00.319Z,4.30
2023-04-26T07:32:00.309Z,4.30
2023-04-26T07:33:00.431Z,4.30
2023-04-26T07:34:00.467Z,4.30
2023-04-26T07:35:00.330Z,4.30
2023-04-26T07:36:00.322Z,4.30
2023-04-26T07:37:00.310Z,4.30
2023-04-26T07:38:00.627Z,4.30
2023-04-26T07:39:00.370Z,4.30
2023-04-26T07:40:00.315Z,4.30
2023-04-26T07:41:00.364Z,4.30
2023-04-26T07:42:00.334Z,4.30
2023-04-26T07:43:00.408Z,4.30
2023-04-26T07:44:00.317Z,4.30
2023-04-26T07:45:00.405Z,4.30
2023-04-26T07:46:00.999Z,4.30
2023-04-26T07:47:00.303Z,4.30
2023-04-26T07:48:00.407Z,4.30
2023-04-26T07:49:00.324Z,4.30
2023-04-26T07:50:00.325Z,4.30
2023-04-26T07:51:08.025Z,4.30
2023-04-26T07:52:00.333Z,4.40
2023-04-26T07:53:00.324Z,4.40
2023-04-26T07:54:00.377Z,4.40
2023-04-26T07:55:00.336Z,4.40
2023-04-26T07:56:00.345Z,4.40
2023-04-26T07:57:00.332Z,4.40
2023-04-26T07:58:00.343Z,4.40
2023-04-26T07:59:00.298Z,4.40
2023-04-26T08:00:00.332Z,4.40
2023-04-26T08:01:00.332Z,4.40
2023-04-26T08:02:00.362Z,4.40
2023-04-26T08:03:00.603Z,4.40
2023-04-26T08:04:00.776Z,4.40
2023-04-26T08:05:00.790Z,4.40
2023-04-26T08:06:00.694Z,4.40
2023-04-26T08:07:00.317Z,4.40
2023-04-26T08:08:01.062Z,4.40
2023-04-26T08:09:00.333Z,4.40
2023-04-26T08:10:00.319Z,4.40
2023-04-26T08:11:00.644Z,4.40
2023-04-26T08:12:00.460Z,4.40
2023-04-26T08:13:00.313Z,4.40
2023-04-26T08:14:00.314Z,4.40
2023-04-26T08:15:01.015Z,4.40
2023-04-26T08:16:00.378Z,4.40
2023-04-26T08:17:00.394Z,4.40
2023-04-26T08:18:00.330Z,4.40
2023-04-26T08:19:00.292Z,4.40
2023-04-26T08:20:00.388Z,4.40
2023-04-26T08:21:01.005Z,4.40
2023-04-26T08:22:00.445Z,4.70
2023-04-26T08:23:00.311Z,4.70
2023-04-26T08:24:00.298Z,4.70
2023-04-26T08:25:00.334Z,4.70
2023-04-26T08:26:00.310Z,4.70
2023-04-26T08:27:00.338Z,4.70
2023-04-26T08:28:00.403Z,4.70
2023-04-26T08:29:00.310Z,4.70
2023-04-26T08:30:00.309Z,4.70
2023-04-26T08:31:00.402Z,4.70
2023-04-26T08:32:00.303Z,4.70
2023-04-26T08:33:00.397Z,4.70
2023-04-26T08:34:00.333Z,4.70
2023-04-26T08:35:00.336Z,4.70
2023-04-26T08:36:00.321Z,4.70
2023-04-26T08:37:00.341Z,4.70
2023-04-26T08:38:00.359Z,4.70
2023-04-26T08:39:00.325Z,4.70
2023-04-26T08:40:00.579Z,4.70
2023-04-26T08:41:01.356Z,4.70
2023-04-26T08:42:10.228Z,4.70
2023-04-26T08:43:00.303Z,4.70
2023-04-26T08:44:00.932Z,4.70
2023-04-26T08:45:00.686Z,4.70
2023-04-26T08:46:00.821Z,4.70
2023-04-26T08:47:10.239Z,4.70
2023-04-26T08:48:04.786Z,4.70
2023-04-26T08:49:09.500Z,4.70
2023-04-26T08:50:00.854Z,4.70
2023-04-26T08:51:00.795Z,4.70
2023-04-26T08:52:00.940Z,4.90
2023-04-26T08:53:00.313Z,4.90
2023-04-26T08:54:01.642Z,4.90
2023-04-26T08:55:01.277Z,4.90
2023-04-26T08:56:01.090Z,4.90
2023-04-26T08:57:00.669Z,4.90
2023-04-26T08:58:00.872Z,4.90
2023-04-26T08:59:00.417Z,4.90
2023-04-26T09:00:02.104Z,4.90
2023-04-26T09:01:01.441Z,4.90
2023-04-26T09:02:00.747Z,4.90
2023-04-26T09:03:00.426Z,4.90
2023-04-26T09:04:00.785Z,4.90
2023-04-26T09:05:00.746Z,4.90
2023-04-26T09:06:02.524Z,4.90
2023-04-26T09:07:01.793Z,4.90
2023-04-26T09:08:00.757Z,4.90
2023-04-26T09:09:02.263Z,4.90
2023-04-26T09:10:01.767Z,4.90
2023-04-26T09:11:01.936Z,4.90
2023-04-26T09:12:00.568Z,4.90
2023-04-26T09:13:00.331Z,4.90
2023-04-26T09:14:00.313Z,4.90
2023-04-26T09:15:00.329Z,4.90
2023-04-26T09:16:01.356Z,4.90
2023-04-26T09:17:00.360Z,4.90
2023-04-26T09:18:10.229Z,4.90
2023-04-26T09:19:00.309Z,4.90
2023-04-26T09:20:00.629Z,4.90
2023-04-26T09:21:02.291Z,4.90
2023-04-26T09:22:00.409Z,6.00
2023-04-26T09:23:08.106Z,6.00
2023-04-26T09:24:00.690Z,6.00
2023-04-26T09:25:00.864Z,6.00
2023-04-26T09:26:10.219Z,6.00
2023-04-26T09:27:00.863Z,6.00
2023-04-26T09:28:01.662Z,6.00
2023-04-26T09:29:10.269Z,6.00
2023-04-26T09:30:03.170Z,6.00
2023-04-26T09:31:00.374Z,6.00
2023-04-26T09:32:00.383Z,6.00
2023-04-26T09:33:01.192Z,6.00
2023-04-26T09:34:00.395Z,6.00
2023-04-26T09:35:00.320Z,6.00
2023-04-26T09:36:10.220Z,6.00
2023-04-26T09:37:00.331Z,6.00
2023-04-26T09:38:12.617Z,6.00
2023-04-26T09:39:00.296Z,6.00
2023-04-26T09:40:00.320Z,6.00
2023-04-26T09:41:00.378Z,6.00
2023-04-26T09:42:00.561Z,6.00
2023-04-26T09:43:00.315Z,6.00
2023-04-26T09:44:00.336Z,6.00
2023-04-26T09:45:07.864Z,6.00
2023-04-26T09:46:00.334Z,6.00
2023-04-26T09:47:01.343Z,6.00
2023-04-26T09:48:10.216Z,6.00
2023-04-26T09:49:00.630Z,6.00
2023-04-26T09:50:00.347Z,6.00
2023-04-26T09:51:03.568Z,6.00
2023-04-26T09:52:00.898Z,5.10
2023-04-26T09:53:00.351Z,5.10
2023-04-26T09:54:00.327Z,5.10
2023-04-26T09:55:00.298Z,5.10
2023-04-26T09:56:07.876Z,5.10
2023-04-26T09:57:00.320Z,5.10
2023-04-26T09:58:06.614Z,5.10
2023-04-26T09:59:00.316Z,5.10
2023-04-26T10:00:05.787Z,5.10
2023-04-26T10:01:01.079Z,5.10
2023-04-26T10:02:00.857Z,5.10
2023-04-26T10:03:00.758Z,5.10
2023-04-26T10:04:01.304Z,5.10
2023-04-26T10:05:00.692Z,5.10
2023-04-26T10:06:00.335Z,5.10
2023-04-26T10:07:00.537Z,5.10
2023-04-26T10:08:01.125Z,5.10
2023-04-26T10:09:00.675Z,5.10
2023-04-26T10:10:00.661Z,5.10
2023-04-26T10:11:02.152Z,5.10
2023-04-26T10:12:00.359Z,5.10
2023-04-26T10:13:00.342Z,5.10
2023-04-26T10:14:00.661Z,5.10
2023-04-26T10:15:02.264Z,5.10
2023-04-26T10:16:00.667Z,5.10
2023-04-26T10:17:02.304Z,5.10
2023-04-26T10:18:00.362Z,5.10
2023-04-26T10:19:00.421Z,5.10
2023-04-26T10:20:01.501Z,5.10
2023-04-26T10:21:05.701Z,5.10
2023-04-26T10:22:09.363Z,4.00
2023-04-26T10:23:00.877Z,4.00
2023-04-26T10:24:00.359Z,4.00
2023-04-26T10:25:00.539Z,4.00
2023-04-26T10:26:00.322Z,4.00
2023-04-26T10:27:00.349Z,4.00
2023-04-26T10:28:00.330Z,4.00
2023-04-26T10:29:02.728Z,4.00
2023-04-26T10:30:01.362Z,4.00
2023-04-26T10:31:00.374Z,4.00
2023-04-26T10:32:01.357Z,4.00
2023-04-26T10:33:00.350Z,4.00
2023-04-26T10:34:11.476Z,4.00
2023-04-26T10:35:09.608Z,4.00
2023-04-26T10:36:00.295Z,4.00
2023-04-26T10:37:10.240Z,4.00
2023-04-26T10:38:00.293Z,4.00
2023-04-26T10:39:10.227Z,4.00
2023-04-26T10:40:10.235Z,4.00
2023-04-26T10:41:10.226Z,4.00
2023-04-26T10:42:10.269Z,4.00
2023-04-26T10:43:10.295Z,4.00
2023-04-26T10:44:10.230Z,4.00
2023-04-26T10:45:11.344Z,4.00
2023-04-26T10:46:10.263Z,4.00
2023-04-26T10:47:00.345Z,4.00
2023-04-26T10:48:10.261Z,4.00
2023-04-26T10:49:10.233Z,4.00
2023-04-26T10:50:02.951Z,4.00
2023-04-26T10:51:00.355Z,4.00
2023-04-26T10:52:07.481Z,3.90
2023-04-26T10:53:01.326Z,3.90
2023-04-26T10:54:00.394Z,3.90
2023-04-26T10:55:00.409Z,3.90
2023-04-26T10:56:00.345Z,3.90
2023-04-26T10:57:00.372Z,3.90
2023-04-26T10:58:00.353Z,3.90
2023-04-26T10:59:22.444Z,3.90
2023-04-26T11:00:07.754Z,3.90
2023-04-26T11:01:04.195Z,3.90
2023-04-26T11:02:00.366Z,3.90
2023-04-26T11:03:02.565Z,3.90
2023-04-26T11:04:03.990Z,3.90
2023-04-26T11:05:01.519Z,3.90
2023-04-26T11:06:06.060Z,3.90
2023-04-26T11:07:01.954Z,3.90
2023-04-26T11:08:04.153Z,3.90
2023-04-26T11:09:00.312Z,3.90
2023-04-26T11:10:00.308Z,3.90
2023-04-26T11:11:01.352Z,3.90
2023-04-26T11:12:00.652Z,3.90
2023-04-26T11:13:00.885Z,3.90
2023-04-26T11:14:00.709Z,3.90
2023-04-26T11:15:00.344Z,3.90
2023-04-26T11:16:01.207Z,3.90
2023-04-26T11:17:03.754Z,3.90
2023-04-26T11:18:02.202Z,3.90
2023-04-26T11:19:00.344Z,3.90
2023-04-26T11:20:03.479Z,3.90
2023-04-26T11:21:00.719Z,3.90
2023-04-26T11:22:00.897Z,3.80
2023-04-26T11:23:00.661Z,3.80
2023-04-26T11:24:00.394Z,3.80
2023-04-26T11:25:00.346Z,3.80
2023-04-26T11:26:01.139Z,3.80
2023-04-26T11:27:00.368Z,3.80
2023-04-26T11:28:01.206Z,3.80
2023-04-26T11:29:00.322Z,3.80
2023-04-26T11:30:02.105Z,3.80
2023-04-26T11:31:02.458Z,3.80
2023-04-26T11:32:01.184Z,3.80
2023-04-26T11:33:01.085Z,3.80
2023-04-26T11:34:02.929Z,3.80
2023-04-26T11:35:00.357Z,3.80
2023-04-26T11:36:00.841Z,3.80
2023-04-26T11:37:01.805Z,3.80
2023-04-26T11:38:02.882Z,3.80
2023-04-26T11:39:00.352Z,3.80
2023-04-26T11:40:00.297Z,3.80
2023-04-26T11:41:01.187Z,3.80
2023-04-26T11:42:04.024Z,3.80
2023-04-26T11:43:03.548Z,3.80
2023-04-26T11:44:00.335Z,3.80
2023-04-26T11:45:00.341Z,3.80
2023-04-26T11:46:00.616Z,3.80
2023-04-26T11:47:01.074Z,3.80
2023-04-26T11:48:02.537Z,3.80
2023-04-26T11:49:00.392Z,3.80
2023-04-26T11:50:00.615Z,3.80
2023-04-26T11:51:01.988Z,3.80
2023-04-26T11:52:01.250Z,3.90
2023-04-26T11:53:00.697Z,3.90
2023-04-26T11:54:00.306Z,3.90
2023-04-26T11:55:00.838Z,3.90
2023-04-26T11:56:00.317Z,3.90
2023-04-26T11:57:00.666Z,3.90
2023-04-26T11:58:07.937Z,3.90
2023-04-26T11:59:00.409Z,3.90
2023-04-26T12:00:07.863Z,3.90
2023-04-26T12:01:00.870Z,3.90
2023-04-26T12:02:04.677Z,3.90
2023-04-26T12:03:04.410Z,3.90
2023-04-26T12:04:00.501Z,3.90
2023-04-26T12:05:00.461Z,3.90
2023-04-26T12:06:00.347Z,3.90
2023-04-26T12:07:02.764Z,3.90
2023-04-26T12:08:00.465Z,3.90
2023-04-26T12:09:00.978Z,3.90
2023-04-26T12:10:10.255Z,3.90
2023-04-26T12:11:00.931Z,3.90
2023-04-26T12:12:00.868Z,3.90
2023-04-26T12:13:00.363Z,3.90
2023-04-26T12:14:00.905Z,3.90
2023-04-26T12:15:00.295Z,3.90
2023-04-26T12:16:15.121Z,3.90
2023-04-26T12:17:00.717Z,3.90
2023-04-26T12:18:05.461Z,3.90
2023-04-26T12:19:03.420Z,3.90
2023-04-26T12:20:07.672Z,3.90
2023-04-26T12:21:00.356Z,3.90
2023-04-26T12:22:00.367Z,4.00
2023-04-26T12:23:00.293Z,4.00
2023-04-26T12:24:00.337Z,4.00
2023-04-26T12:25:07.860Z,4.00
2023-04-26T12:26:00.312Z,4.00
2023-04-26T12:27:02.389Z,4.00
2023-04-26T12:28:00.664Z,4.00
2023-04-26T12:29:00.299Z,4.00
2023-04-26T12:30:00.305Z,4.00
2023-04-26T12:31:00.380Z,4.00
2023-04-26T12:32:00.910Z,4.00
2023-04-26T12:33:15.552Z,4.00
2023-04-26T12:34:00.329Z,4.00
2023-04-26T12:35:00.364Z,4.00
2023-04-26T12:36:10.223Z,4.00
2023-04-26T12:37:00.325Z,4.00
2023-04-26T12:38:00.447Z,4.00
2023-04-26T12:39:00.360Z,4.00
2023-04-26T12:40:00.392Z,4.00
2023-04-26T12:41:00.290Z,4.00
2023-04-26T12:42:00.409Z,4.00
2023-04-26T12:43:00.336Z,4.00
2023-04-26T12:44:00.305Z,4.00
2023-04-26T12:45:00.320Z,4.00
2023-04-26T12:46:00.379Z,4.00
2023-04-26T12:47:00.320Z,4.00
2023-04-26T12:48:00.343Z,4.00
2023-04-26T12:49:00.383Z,4.00
2023-04-26T12:50:00.369Z,4.00
2023-04-26T12:51:00.386Z,4.00
2023-04-26T12:52:00.311Z,3.90
2023-04-26T12:53:00.375Z,3.90
2023-04-26T12:54:00.303Z,3.90
2023-04-26T12:55:00.382Z,3.90
2023-04-26T12:56:00.349Z,3.90
2023-04-26T12:57:00.382Z,3.90
2023-04-26T12:58:00.308Z,3.90
2023-04-26T12:59:00.335Z,3.90
2023-04-26T13:00:00.370Z,3.90
2023-04-26T13:01:00.460Z,3.90
2023-04-26T13:02:00.475Z,3.90
2023-04-26T13:03:00.549Z,3.90
2023-04-26T13:04:00.518Z,3.90
2023-04-26T13:05:00.813Z,3.90
2023-04-26T13:06:00.670Z,3.90
2023-04-26T13:07:00.348Z,3.90
2023-04-26T13:08:00.334Z,3.90
2023-04-26T13:09:00.352Z,3.90
2023-04-26T13:10:00.627Z,3.90
2023-04-26T13:11:00.359Z,3.90
2023-04-26T13:12:00.303Z,3.90
2023-04-26T13:13:00.356Z,3.90
2023-04-26T13:14:00.352Z,3.90
2023-04-26T13:15:00.314Z,3.90
2023-04-26T13:16:00.369Z,3.90
2023-04-26T13:17:00.361Z,3.90
2023-04-26T13:18:00.401Z,3.90